KECS/ECS METAR and TAF weather

Enter ICAO airport designator
Station Type Date Time Source
KECS METAR 2018/10/21 06:15 UTC NOAA

KECS 210615Z AUTO 11004KT 10SM CLR 10/M02 A3014 RMK AO2


Station Type Date Time Source
KECS Decoded METAR 2018/10/21 06:15 UTC NOAA

Station name not available
Oct 21, 2018 - 02:15 AM EDT / 2018.10.21 0615 UTC
Wind: from the ESE (110 degrees) at 5 MPH (4 KT):0
Visibility: 10 mile(s):0
Sky conditions: clear
Temperature: 50 F (10 C)
Dew Point: 28 F (-2 C)
Relative Humidity: 42%
Pressure (altimeter): 30.14 in. Hg (1020 hPa)
ob: KECS 210615Z AUTO 11004KT 10SM CLR 10/M02 A3014 RMK AO2
cycle: 6

Station Type Date Time Source
KECS TAF UTC NOAA

Error!


Example: see airport list